Flight Track Log - Related Links

Times and Time Zones

All times are in EST time to prevent confusion due to time zone crossing. See the BOE5 flight status page for this flight to view local times or setup timezone preferences in your user account.

Time Position Orientation Groundspeed Altitude Reporting Facility
EST Latitude Longitude Course Direction KTS km/h feet Rate Location/Type
Sat 15:32:43 47.5140 -122.2890 149° Southeast 155 286 700  Level FlightAware ADS-B
Sat 15:32:58 47.5040 -122.2790 146° Southeast 169 312 1.200 1.800 Climbing FlightAware ADS-B
Sat 15:33:43 47.4690 -122.2450 147° Southeast 230 426 2.500 1.875 Climbing FlightAware ADS-B
Sat 15:34:18 47.4410 -122.2010 133° Southeast 263 488 3.700 2.073 Climbing FlightAware ADS-B
Sat 15:34:38 47.4360 -122.1680 103° East 268 496 4.400 1.800 Climbing FlightAware ADS-B
Sat 15:34:48 47.4350 -122.1550 96° East 268 496 4.600 300 Climbing FlightAware ADS-B
Sat 15:35:18 47.4310 -122.1120 98° East 268 496 4.600 2.769 Level FlightAware ADS-B
Sat 15:35:53 47.4325 -122.0286 91° East 275 509 7.600 3.308 Climbing Seattle Center
Sat 15:37:00 47.5167 -122.3000 247° West  Level FlightAware Approximate
Sat 15:37:23 47.4310 -121.8420 247° West 12.600  Level FlightAware ADS-B
Sat 15:38:23 47.4300 -121.7070 91° East 347 642 14.800 3.780 Climbing FlightAware ADS-B
Sat 15:39:03 47.4280 -121.6010 92° East 359 665 18.900 4.376 Climbing FlightAware ADS-B
Sat 15:39:48 47.4270 -121.4960 91° East 376 697 21.000 1.835 Climbing FlightAware ADS-B
Sat 15:40:28 47.4260 -121.4100 91° East 379 702 21.500 353 Climbing FlightAware ADS-B
Sat 15:41:13 47.4260 -121.3000 90° East 379 702 21.500 3.529 Level FlightAware ADS-B
Sat 15:41:53 47.4210 -121.1490 93° East 414 766 26.500 4.950 Climbing FlightAware ADS-B
Sat 15:42:33 47.4190 -121.0330 91° East 420 777 28.100 2.259 Climbing FlightAware ADS-B
Sat 15:43:18 47.4160 -120.9040 92° East 428 793 29.700 1.933 Climbing FlightAware ADS-B
Sat 15:44:03 47.4140 -120.7750 91° East 434 803 31.000 1.200 Climbing FlightAware ADS-B
Sat 15:45:08 47.4120 -120.5870 91° East 443 821 31.900 1.829 Climbing FlightAware ADS-B
Sat 15:45:48 47.4070 -120.4650 93° East 446 826 34.200 2.188 Climbing FlightAware ADS-B
Sat 15:46:33 47.4040 -120.3170 92° East 458 848 35.000 565 Climbing FlightAware ADS-B
Sat 15:47:13 47.4000 -120.1870 93° East 472 874 35.000  Level FlightAware ADS-B
Sat 15:47:53 47.3970 -120.0630 92° East 469 869 35.000  Level FlightAware ADS-B
Sat 15:48:38 47.3930 -119.9160 92° East 463 858 35.000  Level FlightAware ADS-B
Sat 15:49:18 47.3890 -119.7930 93° East 459 850 35.000  Level FlightAware ADS-B
Sat 15:49:58 47.3860 -119.6770 92° East 460 851 35.000  Level FlightAware ADS-B
Sat 15:50:43 47.3840 -119.5700 92° East 460 851 35.000  Level FlightAware ADS-B
Sat 15:51:23 47.3810 -119.4630 92° East 460 851 35.000  Level FlightAware ADS-B
Sat 15:52:08 47.3780 -119.3300 92° East 460 851 35.000  Level FlightAware ADS-B
Sat 15:52:48 47.3750 -119.2230 92° East 460 851 35.000  Level FlightAware ADS-B
Sat 15:53:28 47.3730 -119.1160 92° East 460 851 35.000  Level FlightAware ADS-B
Sat 15:54:13 47.3700 -119.0090 92° East 460 851 35.000  Level FlightAware ADS-B
Sat 15:55:08 47.4528 -118.7194 92° East 451 835 35.000  Level Seattle Center
Sat 15:56:08 47.4708 -118.5367 82° East 451 835 35.000  Level Seattle Center
Sat 15:57:09 47.4908 -118.3542 81° East 451 835 35.000 -49 Level Seattle Center
Sat 15:58:10 47.5092 -118.1714 81° East 451 835 34.900  Descending Seattle Center
Sat 15:59:10 47.5056 -117.9839 92° East 469 869 35.000 50 Climbing Seattle Center
Sat 16:00:11 47.4075 -117.8369 135° Southeast 528 978 35.000  Level Seattle Center
Sat 16:01:12 47.2611 -117.8489 183° South 548 1015 35.000 -50 Level Seattle Center
Sat 16:02:12 47.1275 -117.9453 206° Southwest 539 998 34.900  Descending Seattle Center
Sat 16:03:13 46.9928 -118.0422 206° Southwest 542 1004 35.000  Climbing Seattle Center
Sat 16:04:14 46.8569 -118.1389 206° Southwest 543 1006 34.900  Descending Seattle Center
Sat 16:05:14 46.7219 -118.2331 206° Southwest 541 1003 35.000 50 Climbing Seattle Center
Sat 16:06:15 46.5883 -118.3281 206° Southwest 539 998 35.000 -49 Level Seattle Center
Sat 16:07:16 46.4536 -118.4219 206° Southwest 538 996 34.900  Descending Seattle Center
Sat 16:08:17 46.3175 -118.5161 206° Southwest 542 1004 35.000 50 Climbing Seattle Center
Sat 16:09:17 46.1711 -118.6169 206° Southwest 544 1007 35.000  Level Seattle Center
Sat 16:10:18 46.0344 -118.7103 205° Southwest 544 1007 35.000  Level Seattle Center
Sat 16:11:19 45.9214 -118.8397 219° Southwest 528 978 35.000  Level Seattle Center
Sat 16:12:19 45.9083 -119.0222 264° West 469 869 35.000  Level Seattle Center
Sat 16:13:20 45.9742 -119.1550 306° West 420 777 35.000  Level Seattle Center
Sat 16:14:21 46.0936 -119.1978 346° North 391 724 35.000  Level Seattle Center
Sat 16:15:22 46.1872 -119.1358 25° Northeast 376 697 35.000  Level Seattle Center
Sat 16:16:22 46.2444 -118.9956 59° Northeast 408 756 35.000 -50 Level Seattle Center
Sat 16:17:23 46.2794 -118.8472 71° East 417 772 34.900 -49 Descending Seattle Center
Sat 16:18:24 46.3189 -118.6900 70° East 417 772 34.900 49 Level Seattle Center
Sat 16:19:25 46.3583 -118.5322 70° East 420 777 35.000 50 Climbing Seattle Center
Sat 16:20:25 46.4406 -118.4289 41° Northeast 393 727 35.000 -50 Level Seattle Center
Sat 16:21:26 46.5347 -118.3633 26° Northeast 380 703 34.900  Descending Seattle Center
Sat 16:22:27 46.6300 -118.2964 26° Northeast 382 708 35.000 49 Climbing Seattle Center
Sat 16:23:28 46.7250 -118.2300 26° Northeast 381 705 35.000  Level Seattle Center
Sat 16:24:28 46.8214 -118.1608 26° Northeast 385 713 35.000 -50 Level Seattle Center
Sat 16:25:29 46.9169 -118.0936 26° Northeast 383 710 34.900 -49 Descending Seattle Center
Sat 16:26:30 47.0325 -118.0106 26° Northeast 385 713 34.900 49 Level Seattle Center
Sat 16:27:31 47.1286 -117.9419 26° Northeast 385 713 35.000 50 Climbing Seattle Center
Sat 16:28:31 47.2231 -117.8725 27° Northeast 382 708 35.000  Level Seattle Center
Sat 16:29:32 47.3236 -117.8206 19° North 387 716 35.000 -49 Level Seattle Center
Sat 16:30:33 47.4244 -117.8506 349° North 378 700 34.900  Descending Seattle Center
Sat 16:31:33 47.4944 -117.9747 310° West 402 745 35.000  Climbing Seattle Center
Sat 16:32:34 47.4953 -118.1531 270° West 456 845 34.900  Descending Seattle Center
Sat 16:33:35 47.3969 -118.2961 225° Southwest 523 969 35.000  Climbing Seattle Center
Sat 16:34:36 47.2508 -118.2769 175° South 543 1006 34.900  Descending Seattle Center
Sat 16:35:37 47.1086 -118.2056 161° South 543 1006 35.000 50 Climbing Seattle Center
Sat 16:36:37 46.9681 -118.1353 161° South 539 998 35.000 -50 Level Seattle Center
Sat 16:37:38 46.8233 -118.1617 187° South 542 1004 34.900  Descending Seattle Center
Sat 16:38:39 46.6897 -118.2556 206° Southwest 534 990 35.000  Climbing Seattle Center
Sat 16:39:40 46.5550 -118.3508 206° Southwest 537 995 34.900  Descending Seattle Center
Sat 16:40:41 46.4197 -118.4453 206° Southwest 540 999 35.000  Climbing Seattle Center
Sat 16:41:42 46.2589 -118.5567 206° Southwest 538 996 34.900  Descending Seattle Center
Sat 16:42:43 46.1403 -118.6386 206° Southwest 539 998 35.000 50 Climbing Seattle Center
Sat 16:43:43 46.0042 -118.7322 206° Southwest 541 1003 35.000  Level Seattle Center
Sat 16:44:44 45.8986 -118.8708 222° Southwest 531 983 35.000  Level Seattle Center
Sat 16:45:45 45.9083 -119.0808 274° West 451 835 35.000  Level Seattle Center
Sat 16:46:46 45.9903 -119.1844 319° Northwest 406 752 35.000  Level Seattle Center
Sat 16:47:47 46.0942 -119.1983 355° North 387 716 35.000  Level Seattle Center
Sat 16:48:48 46.1872 -119.1311 27° Northeast 384 711 35.000 248 Level Seattle Center
Sat 16:49:48 46.2872 -119.1039 11° North 373 690 35.500 496 Climbing Seattle Center
Sat 16:50:49 46.3903 -119.1272 351° North 376 697 36.000 246 Climbing Seattle Center
Sat 16:51:50 46.4931 -119.1528 350° North 375 695 36.000  Level Seattle Center
Sat 16:52:51 46.5969 -119.1808 349° North 378 700 36.000  Level Seattle Center
Sat 16:53:52 46.7000 -119.2078 350° North 378 700 36.000  Level Seattle Center
Sat 16:54:53 46.7989 -119.2339 350° North 378 700 36.000  Level Seattle Center
Sat 16:55:54 46.9022 -119.2603 350° North 378 700 36.000  Level Seattle Center
Sat 16:56:54 47.0272 -119.2950 349° North 380 703 36.000  Level Seattle Center
Sat 16:57:55 47.1308 -119.3222 350° North 380 703 36.000  Level Seattle Center
Sat 16:58:56 47.2353 -119.3492 352° North 380 703 36.000  Level Seattle Center
Sat 16:59:57 47.3403 -119.3753 351° North 381 705 36.000  Level Seattle Center
Sat 17:00:58 47.4453 -119.4003 283° West 382 708 36.000  Level Seattle Center
Sat 17:01:59 47.5500 -119.4258 278° West 383 710 36.000  Level Seattle Center
Sat 17:03:23 47.7070 -119.4610 350° North 377 698 36.000  Level FlightAware ADS-B
Sat 17:04:03 47.7750 -119.4760 352° North 378 700 36.000  Level FlightAware ADS-B
Sat 17:04:43 47.8390 -119.4910 351° North 378 700 36.000  Level FlightAware ADS-B
Sat 17:05:28 47.9100 -119.5070 351° North 378 700 36.000  Level FlightAware ADS-B
Sat 17:05:58 47.9310 -119.6440 283° West 447 827 36.000  Level FlightAware ADS-B
Sat 17:06:38 47.9430 -119.7680 278° West 451 835 36.000  Level FlightAware ADS-B
Sat 17:07:23 47.9560 -119.9060 278° West 451 835 36.000  Level FlightAware ADS-B
Sat 17:08:03 47.9670 -120.0310 278° West 452 837 36.000  Level FlightAware ADS-B
Sat 17:08:43 47.9790 -120.1540 278° West 451 835 36.000  Level FlightAware ADS-B
Sat 17:09:28 47.9920 -120.2950 278° West 454 840 36.000  Level FlightAware ADS-B
Sat 17:10:13 48.0040 -120.4330 277° West 453 838 36.000  Level FlightAware ADS-B
Sat 17:10:53 48.0150 -120.5550 278° West 453 838 36.000  Level FlightAware ADS-B
Sat 17:11:38 48.0270 -120.6960 277° West 452 837 36.000  Level FlightAware ADS-B
Sat 17:12:18 48.0290 -120.8180 271° West 465 861 36.000  Level FlightAware ADS-B
Sat 17:12:58 48.0250 -120.9480 267° West 466 863 36.000  Level FlightAware ADS-B
Sat 17:13:43 48.0210 -121.0930 268° West 465 861 36.000  Level FlightAware ADS-B
Sat 17:14:23 48.0170 -121.2180 267° West 467 864 36.000  Level FlightAware ADS-B
Sat 17:15:08 48.0130 -121.3650 268° West 469 869 36.000  Level FlightAware ADS-B
Sat 17:15:48 48.0100 -121.5000 268° West 470 871 36.000  Level FlightAware ADS-B
Sat 17:16:33 48.0060 -121.6480 268° West 471 872 36.000  Level FlightAware ADS-B
Sat 17:17:13 48.0070 -121.7750 271° West 462 856 36.000  Level FlightAware ADS-B
Sat 17:17:53 48.0200 -121.9020 279° West 454 840 36.000  Level FlightAware ADS-B
Sat 17:18:38 48.0350 -122.0390 279° West 454 840 36.000  Level FlightAware ADS-B
Sat 17:19:18 48.0490 -122.1610 280° West 454 840 36.000  Level FlightAware ADS-B
Sat 17:19:58 48.0630 -122.2870 279° West 454 840 36.000  Level FlightAware ADS-B
Sat 17:20:43 48.0790 -122.4260 280° West 455 843 36.000  Level FlightAware ADS-B
Sat 17:21:23 48.0930 -122.5510 280° West 456 845 36.000  Level FlightAware ADS-B
Sat 17:22:08 48.1080 -122.6910 279° West 458 848 36.000 -141 Level FlightAware ADS-B
Sat 17:22:48 48.1210 -122.8140 279° West 459 850 35.800 -847 Descending FlightAware ADS-B
Sat 17:23:33 48.1360 -122.9580 279° West 460 851 34.800 -1.271 Descending FlightAware ADS-B
Sat 17:24:13 48.1490 -123.0820 279° West 460 851 34.000 -1.800 Descending FlightAware ADS-B
Sat 17:24:53 48.1620 -123.2080 279° West 461 855 32.400 -3.176 Descending FlightAware ADS-B
Sat 17:25:38 48.1770 -123.3520 279° West 475 880 29.500 -3.953 Descending FlightAware ADS-B
Sat 17:26:18 48.1910 -123.4860 279° West 482 893 26.800 -3.750 Descending FlightAware ADS-B
Sat 17:26:58 48.2030 -123.6140 278° West 447 827 24.500 -2.682 Descending FlightAware ADS-B
Sat 17:27:43 48.2160 -123.7420 279° West 417 772 23.000 -1.059 Descending FlightAware ADS-B
Sat 17:28:23 48.2280 -123.8590 279° West 419 776 23.000  Level FlightAware ADS-B
Sat 17:29:08 48.2390 -123.9890 277° West 431 798 23.000  Level FlightAware ADS-B
Sat 17:29:33 48.2210 -124.0630 250° West 454 840 23.000  Level FlightAware ADS-B
Sat 17:29:48 48.1980 -124.0960 224° Southwest 468 867 23.000  Level FlightAware ADS-B
Sat 17:30:03 48.1690 -124.1170 206° Southwest 478 885 23.000 -2.509 Level FlightAware ADS-B
Sat 17:30:43 48.0870 -124.1490 195° South 463 858 20.700 -4.275 Descending FlightAware ADS-B
Sat 17:31:23 48.0030 -124.1510 181° South 435 806 17.300 -5.236 Descending FlightAware ADS-B
Sat 17:31:38 47.9740 -124.1310 155° Southeast 427 790 15.900 -5.200 Descending FlightAware ADS-B
Sat 17:31:53 47.9500 -124.1030 142° Southeast 423 784 14.700 -3.733 Descending FlightAware ADS-B
Sat 17:32:23 47.9220 -124.0320 120° Southeast 407 753 13.100 -2.471 Descending FlightAware ADS-B
Sat 17:33:18 47.9230 -123.8840 89° East 375 695 11.200 -1.516 Descending FlightAware ADS-B
Sat 17:33:58 47.9330 -123.7870 81° East 371 687 10.700 -353 Descending FlightAware ADS-B
Sat 17:34:43 47.9460 -123.6690 81° East 370 686 10.700  Level FlightAware ADS-B
Sat 17:35:23 47.9570 -123.5680 81° East 370 686 10.700  Level FlightAware ADS-B
Sat 17:36:03 47.9680 -123.4650 81° East 368 681 10.700  Level FlightAware ADS-B
Sat 17:36:48 47.9800 -123.3520 81° East 368 681 10.700  Level FlightAware ADS-B
Sat 17:37:28 47.9900 -123.2520 81° East 367 679 10.700  Level FlightAware ADS-B
Sat 17:38:13 48.0020 -123.1380 81° East 364 674 10.700  Level FlightAware ADS-B
Sat 17:38:53 48.0120 -123.0410 81° East 364 674 10.700  Level FlightAware ADS-B
Sat 17:39:33 48.0220 -122.9440 81° East 321 594 10.700 -141 Level FlightAware ADS-B
Sat 17:40:18 48.0180 -122.8530 94° East 298 552 10.500 -857 Descending FlightAware ADS-B
Sat 17:40:43 47.9970 -122.8120 127° Southeast 294 544 9.700 -1.650 Descending FlightAware ADS-B
Sat 17:40:58 47.9800 -122.7970 149° Southeast 298 552 9.400 -1.333 Descending FlightAware ADS-B
Sat 17:41:28 47.9440 -122.7640 148° Southeast 283 525 8.700 -1.200 Descending FlightAware ADS-B
Sat 17:41:53 47.9200 -122.7360 142° Southeast 274 507 8.300 -554 Descending FlightAware ADS-B
Sat 17:42:33 47.8930 -122.6930 133° Southeast 266 492 8.100 -1.200 Descending FlightAware ADS-B
Sat 17:43:33 47.8430 -122.6070 131° Southeast 259 480 6.300 -2.400 Descending FlightAware ADS-B
Sat 17:43:53 47.8270 -122.5770 128° Southeast 250 463 4.900 -2.743 Descending FlightAware ADS-B
Sat 17:44:08 47.8144 -122.5550 149° Southeast 251 465 4.700 -1.933 Descending Seattle Center
Sat 17:45:23 47.7480 -122.4870 143° Southeast 212 393 2.000 -1.867 Descending FlightAware ADS-B
Sat 17:45:38 47.7390 -122.4800 152° Southeast 204 378 1.900 255 Descending FlightAware ADS-B
Sat 17:46:10 47.7103 -122.4578 151° Southeast 190 352 2.200 340 Climbing Seattle Center
Sat 17:46:31 47.6961 -122.4431 151° Southeast 193 357 2.200 -212 Level Seattle Center
Sat 17:48:03 47.6280 -122.3860 150° Southeast 179 332 1.800 -472 Descending FlightAware ADS-B
Sat 17:48:38 47.6040 -122.3650 149° Southeast 157 291 1.200 -923 Descending FlightAware ADS-B
Sat 17:49:08 47.5870 -122.3500 149° Southeast 142 262 800 -873 Descending FlightAware ADS-B
Sat 17:49:33 47.5710 -122.3370 151° Southeast 144 267 400 -423 Descending FlightAware ADS-B
Sat 17:50:19 47.5514 -122.3217 151° Southeast 135 249 300 10.426 Descending Seattle Center
Sat 17:50:34 47.5358 -122.3078 149° Southeast 143 266 11.000 42.800 Climbing Seattle Center
Sat 17:52:00 47.5300 -122.3020 132° Southeast  Level Estimated

Login

Don't have an account? Register now (free) for customized features, flight alerts, and more!